Latest METARs, TAFs and NOTAMs for LSGG


---------------------------------------------------------------------------
	(OBSERVATIONS)
Sorry, no metar available for LSGG
---------------------------------------------------------------------------
	(FC)
Sorry, FC For LSGG Not Found
---------------------------------------------------------------------------
	(TERMINAL AREA FORECAST)
LSGG 151725Z 1518/1624 22010KT 9999 FEW030 SCT050 BKN080
    TX22/1614Z TN15/1605Z
    PROB30 TEMPO 1518/1520 SHRA
    BECMG 1520/1522 VRB02KT FEW040TCU
    PROB30 TEMPO 1602/1606 4500 BR
    BECMG 1612/1614 29009KT=
---------------------------------------------------------------------------
	(NOTAMS)


LSGG A0747/20 ADJUSTED RWY HLDG PSN MARKINGS CAT I IN HLDG BAY
    Z. 06 NOV 14:41 2020 UNTIL PERM. CREATED: 06 NOV 14:42 2020

---------------------------------------------------------------------------